createdAt,value
2019-01-06T00:00:12.791Z,9.90
2019-01-06T00:01:00.968Z,9.15
2019-01-06T00:01:54.913Z,12.23
2019-01-06T00:02:51.774Z,13.90
2019-01-06T00:03:46.246Z,11.80
2019-01-06T00:04:49.143Z,10.30
2019-01-06T00:05:41.748Z,11.93
2019-01-06T00:06:35.381Z,10.13
2019-01-06T00:07:28.394Z,10.58
2019-01-06T00:08:14.308Z,10.25
2019-01-06T00:09:10.480Z,10.75
2019-01-06T00:10:04.360Z,12.95
2019-01-06T00:11:10.328Z,10.55
2019-01-06T00:12:09.655Z,9.63
2019-01-06T00:13:12.924Z,9.20
2019-01-06T00:14:06.591Z,9.68
2019-01-06T00:15:06.894Z,9.58
2019-01-06T00:15:59.231Z,11.30
2019-01-06T00:17:04.010Z,11.40
2019-01-06T00:18:03.519Z,9.05
2019-01-06T00:18:55.819Z,9.23
2019-01-06T00:19:50.054Z,10.85
2019-01-06T00:20:42.532Z,10.43
2019-01-06T00:21:39.628Z,9.23
2019-01-06T00:22:35.100Z,10.50
2019-01-06T00:23:29.217Z,12.13
2019-01-06T00:24:38.496Z,9.00
2019-01-06T00:25:31.095Z,10.93
2019-01-06T00:26:43.169Z,13.53
2019-01-06T00:27:35.536Z,12.28
2019-01-06T00:28:28.828Z,11.12
2019-01-06T00:29:19.840Z,10.25
2019-01-06T00:30:12.605Z,9.03
2019-01-06T00:31:09.880Z,10.00
2019-01-06T00:31:56.405Z,12.45
2019-01-06T00:32:52.838Z,11.65
2019-01-06T00:33:50.181Z,10.53
2019-01-06T00:34:36.148Z,9.88
2019-01-06T00:35:40.934Z,13.08
2019-01-06T00:36:40.589Z,7.70
2019-01-06T00:37:40.302Z,9.30
2019-01-06T00:38:42.855Z,10.38
2019-01-06T00:39:45.465Z,11.88
2019-01-06T00:40:39.241Z,9.63
2019-01-06T00:41:31.528Z,12.45
2019-01-06T00:42:35.319Z,10.95
2019-01-06T00:43:28.357Z,11.93
2019-01-06T00:44:36.631Z,12.98
2019-01-06T00:45:36.852Z,10.98
2019-01-06T00:46:37.078Z,7.90
2019-01-06T00:47:40.785Z,10.93
2019-01-06T00:48:40.635Z,8.03
2019-01-06T00:49:34.017Z,11.00
2019-01-06T00:50:32.281Z,9.98
2019-01-06T00:51:35.024Z,14.20
2019-01-06T00:52:29.384Z,10.95
2019-01-06T00:53:21.372Z,10.75
2019-01-06T00:54:21.673Z,12.28
2019-01-06T00:55:27.760Z,11.60
2019-01-06T00:56:20.811Z,12.45
2019-01-06T00:57:20.775Z,12.90
2019-01-06T00:58:13.303Z,11.35
2019-01-06T00:59:00.523Z,13.13
2019-01-06T00:59:45.988Z,9.13
2019-01-06T01:00:40.180Z,11.57
2019-01-06T01:01:37.339Z,12.20
2019-01-06T01:02:34.577Z,10.95
2019-01-06T01:03:34.263Z,15.18
2019-01-06T01:04:27.575Z,11.30
2019-01-06T01:05:24.799Z,11.70
2019-01-06T01:06:16.189Z,14.68
2019-01-06T01:07:21.858Z,11.68
2019-01-06T01:08:15.118Z,10.63
2019-01-06T01:09:14.925Z,12.15
2019-01-06T01:10:21.597Z,10.08
2019-01-06T01:11:15.475Z,12.07
2019-01-06T01:12:18.139Z,15.30
2019-01-06T01:13:11.236Z,11.55
2019-01-06T01:14:07.714Z,9.35
2019-01-06T01:15:14.216Z,8.58
2019-01-06T01:16:06.633Z,13.43
2019-01-06T01:17:15.387Z,11.97
2019-01-06T01:18:08.393Z,12.10
2019-01-06T01:19:11.650Z,12.43
2019-01-06T01:20:11.360Z,11.03
2019-01-06T01:21:04.057Z,12.37
2019-01-06T01:22:10.354Z,10.50
2019-01-06T01:23:03.079Z,14.90
2019-01-06T01:24:02.745Z,11.65
2019-01-06T01:25:03.644Z,11.60
2019-01-06T01:25:48.451Z,11.97
2019-01-06T01:26:51.469Z,13.75
2019-01-06T01:28:02.994Z,12.00
2019-01-06T01:29:12.427Z,16.52
2019-01-06T01:30:11.859Z,12.82
2019-01-06T01:31:04.981Z,13.68
2019-01-06T01:32:07.818Z,15.30
2019-01-06T01:33:11.105Z,14.13
2019-01-06T01:34:09.789Z,14.93
2019-01-06T01:35:07.349Z,14.85
2019-01-06T01:36:01.055Z,15.75
2019-01-06T01:36:53.685Z,13.32
2019-01-06T01:37:46.443Z,14.38
2019-01-06T01:38:36.689Z,13.05
2019-01-06T01:39:39.715Z,13.98
2019-01-06T01:40:31.960Z,13.58
2019-01-06T01:41:20.053Z,12.90
2019-01-06T01:42:23.095Z,14.87
2019-01-06T01:43:16.151Z,13.72
2019-01-06T01:44:10.197Z,11.53
2019-01-06T01:45:11.957Z,12.63
2019-01-06T01:46:05.950Z,11.05
2019-01-06T01:46:51.661Z,16.23
2019-01-06T01:47:43.731Z,11.97
2019-01-06T01:48:45.987Z,13.65
2019-01-06T01:49:57.870Z,12.78
2019-01-06T01:50:52.525Z,10.80
2019-01-06T01:51:43.947Z,13.60
2019-01-06T01:52:34.925Z,13.93
2019-01-06T01:53:27.652Z,16.12
2019-01-06T01:54:17.048Z,11.25
2019-01-06T01:55:09.685Z,14.05
2019-01-06T01:56:11.123Z,13.08
2019-01-06T01:57:10.177Z,14.60
2019-01-06T01:58:02.833Z,11.33
2019-01-06T01:58:55.576Z,11.22
2019-01-06T01:59:49.204Z,16.27
2019-01-06T02:01:01.539Z,12.47
2019-01-06T02:01:55.534Z,13.48
2019-01-06T02:02:47.798Z,12.37
2019-01-06T02:03:53.207Z,11.68
2019-01-06T02:04:49.858Z,12.33
2019-01-06T02:05:37.529Z,12.47
2019-01-06T02:06:28.913Z,14.65
2019-01-06T02:07:25.845Z,11.00
2019-01-06T02:08:18.158Z,11.50
2019-01-06T02:09:10.693Z,9.30
2019-01-06T02:10:23.401Z,15.72
2019-01-06T02:11:23.109Z,14.25
2019-01-06T02:12:29.060Z,12.95
2019-01-06T02:13:33.407Z,12.63
2019-01-06T02:14:30.533Z,10.43
2019-01-06T02:15:22.855Z,13.13
2019-01-06T02:16:25.824Z,11.68
2019-01-06T02:17:35.742Z,12.95
2019-01-06T02:18:41.504Z,9.30
2019-01-06T02:19:46.019Z,12.45
2019-01-06T02:20:35.956Z,10.32
2019-01-06T02:21:29.707Z,12.95
2019-01-06T02:22:23.785Z,10.95
2019-01-06T02:23:20.170Z,13.25
2019-01-06T02:24:07.887Z,11.50
2019-01-06T02:25:20.159Z,12.82
2019-01-06T02:26:23.030Z,13.93
2019-01-06T02:27:15.881Z,11.10
2019-01-06T02:28:16.619Z,12.10
2019-01-06T02:29:10.262Z,12.43
2019-01-06T02:30:11.826Z,11.73
2019-01-06T02:31:04.205Z,12.43
2019-01-06T02:31:57.390Z,12.63
2019-01-06T02:32:50.320Z,16.97
2019-01-06T02:33:40.554Z,11.05
2019-01-06T02:34:33.395Z,12.05
2019-01-06T02:35:26.022Z,12.85
2019-01-06T02:36:22.564Z,14.03
2019-01-06T02:37:14.980Z,13.93
2019-01-06T02:38:27.069Z,12.15
2019-01-06T02:39:20.901Z,12.47
2019-01-06T02:40:17.832Z,10.53
2019-01-06T02:41:10.281Z,10.40
2019-01-06T02:42:10.270Z,10.43
2019-01-06T02:43:02.688Z,10.00
2019-01-06T02:43:52.895Z,14.33
2019-01-06T02:44:55.302Z,14.73
2019-01-06T02:45:50.646Z,11.63
2019-01-06T02:46:44.738Z,15.03
2019-01-06T02:47:47.501Z,13.65
2019-01-06T02:48:41.708Z,14.95
2019-01-06T02:49:33.997Z,15.20
2019-01-06T02:50:27.851Z,15.88
2019-01-06T02:51:24.099Z,12.13
2019-01-06T02:52:16.972Z,13.85
2019-01-06T02:53:20.282Z,12.00
2019-01-06T02:54:19.643Z,10.55
2019-01-06T02:55:12.230Z,14.47
2019-01-06T02:56:24.085Z,13.08
2019-01-06T02:57:23.775Z,13.98
2019-01-06T02:58:26.603Z,16.40
2019-01-06T02:59:19.296Z,11.85
2019-01-06T03:00:12.168Z,12.30
2019-01-06T03:00:58.555Z,12.45
2019-01-06T03:01:51.725Z,11.78
2019-01-06T03:02:43.778Z,11.10
2019-01-06T03:03:37.859Z,12.53
2019-01-06T03:04:44.015Z,13.55
2019-01-06T03:05:43.801Z,16.07
2019-01-06T03:06:55.775Z,11.18
2019-01-06T03:07:44.169Z,15.30
2019-01-06T03:08:50.796Z,14.13
2019-01-06T03:09:47.550Z,11.18
2019-01-06T03:10:39.693Z,10.58
2019-01-06T03:11:39.485Z,11.97
2019-01-06T03:12:35.290Z,14.65
2019-01-06T03:13:41.516Z,13.25
2019-01-06T03:14:23.459Z,12.03
2019-01-06T03:15:15.263Z,10.25
2019-01-06T03:16:07.781Z,13.68
2019-01-06T03:17:05.111Z,10.00
2019-01-06T03:17:58.767Z,11.78
2019-01-06T03:18:52.439Z,11.60
2019-01-06T03:19:53.432Z,10.72
2019-01-06T03:20:45.859Z,12.98
2019-01-06T03:21:42.559Z,11.57
2019-01-06T03:22:45.835Z,13.48
2019-01-06T03:23:42.651Z,12.03
2019-01-06T03:24:54.608Z,11.90
2019-01-06T03:25:52.562Z,12.35
2019-01-06T03:26:50.751Z,11.80
2019-01-06T03:27:50.967Z,12.35
2019-01-06T03:28:51.003Z,13.78
2019-01-06T03:29:53.791Z,10.95
2019-01-06T03:30:58.152Z,8.98
2019-01-06T03:31:52.141Z,16.45
2019-01-06T03:32:58.459Z,8.85
2019-01-06T03:34:01.915Z,11.55
2019-01-06T03:34:55.572Z,14.25
2019-01-06T03:35:50.200Z,11.63
2019-01-06T03:36:42.910Z,17.17
2019-01-06T03:37:36.552Z,11.48
2019-01-06T03:38:28.947Z,11.95
2019-01-06T03:39:25.388Z,11.33
2019-01-06T03:40:29.087Z,13.13
2019-01-06T03:41:29.207Z,12.65
2019-01-06T03:42:23.031Z,10.20
2019-01-06T03:43:19.436Z,15.08
2019-01-06T03:44:15.904Z,14.00
2019-01-06T03:45:13.634Z,12.93
2019-01-06T03:46:10.031Z,13.30
2019-01-06T03:47:02.439Z,10.63
2019-01-06T03:47:54.798Z,10.23
2019-01-06T03:48:54.697Z,15.95
2019-01-06T03:49:44.870Z,13.38
2019-01-06T03:50:53.475Z,12.53
2019-01-06T03:51:46.815Z,12.10
2019-01-06T03:52:55.579Z,12.18
2019-01-06T03:53:49.764Z,10.98
2019-01-06T03:54:46.931Z,12.30
2019-01-06T03:55:40.599Z,10.45
2019-01-06T03:56:50.044Z,13.55
2019-01-06T03:57:42.455Z,10.85
2019-01-06T03:58:36.561Z,10.23
2019-01-06T03:59:45.845Z,12.88
2019-01-06T04:00:39.221Z,12.43
2019-01-06T04:01:31.640Z,9.70
2019-01-06T04:02:24.535Z,12.55
2019-01-06T04:03:33.822Z,12.07
2019-01-06T04:04:30.787Z,13.05
2019-01-06T04:05:28.448Z,17.35
2019-01-06T04:06:20.347Z,10.58
2019-01-06T04:07:23.833Z,9.63
2019-01-06T04:08:29.912Z,9.30
2019-01-06T04:09:38.860Z,11.12
2019-01-06T04:10:31.255Z,8.70
2019-01-06T04:11:24.017Z,10.18
2019-01-06T04:12:20.819Z,13.90
2019-01-06T04:13:33.176Z,15.75
2019-01-06T04:14:26.177Z,9.90
2019-01-06T04:15:12.483Z,9.65
2019-01-06T04:16:15.241Z,11.55
2019-01-06T04:17:08.929Z,8.03
2019-01-06T04:18:12.014Z,8.58
2019-01-06T04:19:04.692Z,12.85
2019-01-06T04:19:58.357Z,12.68
2019-01-06T04:20:50.716Z,8.28
2019-01-06T04:21:50.277Z,10.82
2019-01-06T04:22:42.733Z,9.50
2019-01-06T04:23:39.545Z,12.45
2019-01-06T04:24:37.044Z,14.95
2019-01-06T04:25:38.655Z,8.58
2019-01-06T04:26:39.099Z,10.48
2019-01-06T04:27:32.601Z,9.90
2019-01-06T04:28:30.700Z,14.50
2019-01-06T04:29:19.707Z,13.08
2019-01-06T04:30:12.375Z,11.80
2019-01-06T04:31:04.631Z,12.60
2019-01-06T04:32:10.821Z,13.18
2019-01-06T04:33:20.273Z,10.53
2019-01-06T04:34:14.031Z,12.73
2019-01-06T04:35:06.687Z,11.25
2019-01-06T04:36:00.070Z,12.60
2019-01-06T04:37:06.209Z,13.43
2019-01-06T04:37:58.952Z,12.95
2019-01-06T04:38:55.339Z,12.68
2019-01-06T04:39:44.817Z,13.45
2019-01-06T04:40:37.426Z,13.05
2019-01-06T04:41:34.238Z,12.90
2019-01-06T04:42:27.924Z,12.75
2019-01-06T04:43:23.873Z,13.55
2019-01-06T04:44:23.769Z,13.30
2019-01-06T04:45:21.591Z,16.62
2019-01-06T04:46:21.335Z,12.35
2019-01-06T04:47:14.110Z,13.03
2019-01-06T04:48:26.748Z,12.82
2019-01-06T04:49:23.311Z,14.55
2019-01-06T04:50:20.544Z,12.50
2019-01-06T04:51:13.578Z,11.57
2019-01-06T04:52:13.067Z,13.28
2019-01-06T04:53:11.037Z,12.60
2019-01-06T04:54:08.360Z,11.83
2019-01-06T04:55:00.870Z,14.78
2019-01-06T04:55:58.036Z,10.98
2019-01-06T04:56:50.860Z,13.85
2019-01-06T04:57:50.689Z,11.53
2019-01-06T04:58:38.712Z,15.43
2019-01-06T04:59:36.203Z,15.55
2019-01-06T05:00:28.525Z,13.05
2019-01-06T05:01:21.438Z,13.43
2019-01-06T05:02:18.810Z,13.68
2019-01-06T05:03:11.995Z,12.90
2019-01-06T05:04:05.656Z,13.80
2019-01-06T05:04:59.379Z,14.98
2019-01-06T05:06:02.375Z,15.15
2019-01-06T05:06:55.414Z,11.90
2019-01-06T05:07:48.519Z,13.32
2019-01-06T05:08:41.862Z,12.80
2019-01-06T05:09:34.575Z,18.55
2019-01-06T05:10:34.043Z,15.13
2019-01-06T05:11:26.952Z,12.15
2019-01-06T05:12:32.834Z,10.80
2019-01-06T05:13:42.353Z,11.03
2019-01-06T05:14:43.684Z,12.93
2019-01-06T05:15:36.547Z,11.15
2019-01-06T05:16:28.827Z,10.18
2019-01-06T05:17:21.895Z,12.65
2019-01-06T05:18:21.677Z,13.83
2019-01-06T05:19:14.523Z,13.48
2019-01-06T05:20:14.897Z,14.05
2019-01-06T05:21:07.974Z,14.87
2019-01-06T05:22:02.232Z,14.43
2019-01-06T05:22:55.192Z,14.30
2019-01-06T05:23:49.156Z,16.32
2019-01-06T05:24:42.194Z,15.68
2019-01-06T05:25:36.092Z,15.88
2019-01-06T05:26:45.152Z,14.30
2019-01-06T05:27:50.530Z,14.45
2019-01-06T05:28:42.995Z,14.18
2019-01-06T05:29:36.042Z,12.80
2019-01-06T05:30:41.676Z,13.58
2019-01-06T05:31:38.065Z,18.48
2019-01-06T05:32:28.269Z,13.58
2019-01-06T05:33:24.841Z,15.55
2019-01-06T05:34:30.450Z,15.40
2019-01-06T05:35:22.944Z,13.18
2019-01-06T05:36:28.609Z,15.55
2019-01-06T05:37:29.309Z,14.68
2019-01-06T05:38:24.799Z,27.45
2019-01-06T05:39:24.807Z,24.10
2019-01-06T05:40:22.980Z,19.82
2019-01-06T05:41:17.034Z,17.37
2019-01-06T05:42:26.367Z,16.87
2019-01-06T05:43:23.131Z,15.35
2019-01-06T05:44:13.062Z,11.60
2019-01-06T05:45:07.440Z,12.35
2019-01-06T05:46:00.045Z,14.38
2019-01-06T05:47:06.041Z,14.03
2019-01-06T05:48:06.262Z,14.07
2019-01-06T05:48:58.550Z,12.98
2019-01-06T05:49:48.892Z,13.08
2019-01-06T05:50:41.413Z,15.90
2019-01-06T05:51:44.896Z,17.75
2019-01-06T05:52:37.797Z,17.92
2019-01-06T05:53:40.915Z,13.68
2019-01-06T05:54:50.278Z,14.65
2019-01-06T05:55:38.388Z,14.68
2019-01-06T05:56:38.679Z,16.30
2019-01-06T05:57:33.516Z,16.93
2019-01-06T05:58:36.607Z,21.82
2019-01-06T05:59:36.365Z,14.73
2019-01-06T06:00:32.837Z,17.57
2019-01-06T06:01:25.243Z,14.35
2019-01-06T06:02:21.987Z,16.90
2019-01-06T06:03:14.260Z,17.70
2019-01-06T06:04:07.148Z,13.93
2019-01-06T06:04:59.707Z,20.60
2019-01-06T06:05:49.390Z,14.20
2019-01-06T06:06:42.116Z,14.90
2019-01-06T06:07:37.234Z,17.95
2019-01-06T06:08:31.325Z,19.00
2019-01-06T06:09:24.156Z,17.67
2019-01-06T06:10:10.326Z,15.98
2019-01-06T06:11:02.624Z,16.35
2019-01-06T06:11:55.547Z,13.40
2019-01-06T06:12:47.987Z,15.03
2019-01-06T06:13:47.492Z,13.70
2019-01-06T06:14:40.736Z,14.80
2019-01-06T06:15:40.815Z,12.88
2019-01-06T06:16:33.728Z,16.82
2019-01-06T06:17:25.040Z,14.93
2019-01-06T06:18:37.523Z,15.08
2019-01-06T06:19:30.226Z,16.65
2019-01-06T06:20:18.438Z,14.53
2019-01-06T06:21:18.287Z,15.23
2019-01-06T06:22:11.300Z,12.95
2019-01-06T06:23:05.205Z,11.75
2019-01-06T06:24:05.391Z,13.40
2019-01-06T06:24:47.921Z,14.68
2019-01-06T06:25:50.522Z,13.60
2019-01-06T06:26:42.572Z,14.00
2019-01-06T06:27:51.400Z,14.43
2019-01-06T06:28:52.706Z,14.15
2019-01-06T06:29:55.263Z,17.85
2019-01-06T06:30:48.195Z,17.32
2019-01-06T06:31:42.691Z,15.08
2019-01-06T06:32:42.878Z,18.55
2019-01-06T06:33:36.574Z,17.45
2019-01-06T06:34:27.372Z,15.72
2019-01-06T06:35:19.727Z,15.63
2019-01-06T06:36:08.553Z,16.30
2019-01-06T06:37:08.814Z,14.13
2019-01-06T06:38:12.295Z,15.93
2019-01-06T06:39:06.710Z,14.50
2019-01-06T06:40:13.149Z,16.35
2019-01-06T06:41:07.421Z,18.57
2019-01-06T06:42:16.561Z,17.32
2019-01-06T06:43:09.381Z,16.05
2019-01-06T06:44:06.026Z,17.60
2019-01-06T06:44:58.527Z,13.95
2019-01-06T06:45:51.657Z,13.32
2019-01-06T06:46:54.445Z,19.27
2019-01-06T06:47:47.172Z,17.85
2019-01-06T06:48:41.418Z,16.40
2019-01-06T06:49:43.953Z,15.30
2019-01-06T06:50:36.824Z,13.98
2019-01-06T06:51:37.425Z,14.98
2019-01-06T06:52:36.191Z,14.45
2019-01-06T06:53:35.699Z,15.03
2019-01-06T06:54:28.325Z,15.75
2019-01-06T06:55:28.104Z,19.30
2019-01-06T06:56:34.028Z,15.20
2019-01-06T06:58:15.512Z,18.23
2019-01-06T06:59:10.037Z,14.43
2019-01-06T07:00:48.339Z,16.80
2019-01-06T07:02:28.632Z,15.32
2019-01-06T07:03:40.504Z,12.50
2019-01-06T07:04:33.478Z,14.87
2019-01-06T07:05:39.792Z,15.95
2019-01-06T07:06:32.812Z,16.65
2019-01-06T07:07:25.552Z,16.00
2019-01-06T07:08:28.994Z,21.02
2019-01-06T07:09:22.134Z,17.75
2019-01-06T07:10:16.241Z,16.80
2019-01-06T07:11:18.908Z,17.37
2019-01-06T07:12:24.434Z,18.07
2019-01-06T07:13:17.264Z,20.52
2019-01-06T07:14:13.408Z,17.12
2019-01-06T07:15:00.442Z,15.95
2019-01-06T07:15:52.757Z,20.05
2019-01-06T07:17:21.608Z,17.75
2019-01-06T07:18:26.448Z,19.80
2019-01-06T07:19:23.175Z,14.43
2019-01-06T07:20:29.404Z,17.05
2019-01-06T07:21:26.228Z,18.67
2019-01-06T07:22:32.472Z,19.35
2019-01-06T07:23:25.336Z,18.25
2019-01-06T07:24:27.996Z,18.23
2019-01-06T07:25:22.059Z,16.52
2019-01-06T07:26:28.302Z,18.73
2019-01-06T07:27:21.299Z,18.25
2019-01-06T07:28:14.556Z,18.00
2019-01-06T07:29:07.313Z,15.50
2019-01-06T07:30:04.629Z,22.00
2019-01-06T07:31:01.717Z,17.98
2019-01-06T07:31:51.000Z,22.87
2019-01-06T07:32:47.701Z,15.75
2019-01-06T07:33:41.468Z,16.85
2019-01-06T07:34:38.745Z,17.90
2019-01-06T07:35:51.322Z,16.95
2019-01-06T07:36:57.469Z,17.35
2019-01-06T07:38:06.389Z,16.60
2019-01-06T07:38:58.896Z,17.27
2019-01-06T07:39:59.561Z,18.50
2019-01-06T07:40:59.006Z,17.17
2019-01-06T07:42:02.564Z,18.45
2019-01-06T07:42:49.363Z,20.52
2019-01-06T07:43:58.532Z,18.57
2019-01-06T07:44:55.426Z,20.12
2019-01-06T07:45:55.991Z,19.17
2019-01-06T07:46:54.419Z,20.12
2019-01-06T07:47:48.388Z,18.60
2019-01-06T07:48:38.921Z,21.45
2019-01-06T07:49:32.552Z,21.70
2019-01-06T07:50:24.523Z,21.55
2019-01-06T07:51:12.266Z,22.95
2019-01-06T07:52:04.704Z,20.82
2019-01-06T07:53:05.327Z,18.90
2019-01-06T07:53:58.967Z,17.62
2019-01-06T07:55:01.964Z,22.82
2019-01-06T07:55:55.002Z,20.82
2019-01-06T07:57:04.093Z,19.30
2019-01-06T07:58:07.815Z,21.10
2019-01-06T07:59:10.357Z,20.23
2019-01-06T08:00:16.717Z,20.25
2019-01-06T08:01:25.972Z,21.27
2019-01-06T08:02:32.807Z,24.23
2019-01-06T08:03:42.025Z,21.55
2019-01-06T08:04:27.361Z,20.57
2019-01-06T08:05:20.364Z,22.10
2019-01-06T08:06:29.553Z,23.60
2019-01-06T08:07:23.550Z,22.95
2019-01-06T08:08:15.785Z,21.48
2019-01-06T08:09:24.631Z,22.20
2019-01-06T08:10:30.579Z,23.05
2019-01-06T08:11:26.938Z,25.95
2019-01-06T08:12:19.061Z,24.72
2019-01-06T08:13:19.011Z,21.17
2019-01-06T08:14:12.691Z,21.62
2019-01-06T08:15:07.153Z,21.42
2019-01-06T08:15:59.668Z,24.90
2019-01-06T08:16:56.991Z,21.45
2019-01-06T08:17:59.581Z,22.27
2019-01-06T08:18:56.092Z,21.93
2019-01-06T08:19:48.899Z,21.93
2019-01-06T08:20:42.917Z,21.65
2019-01-06T08:21:35.890Z,21.90
2019-01-06T08:22:39.254Z,20.12
2019-01-06T08:23:33.042Z,23.15
2019-01-06T08:24:36.364Z,21.93
2019-01-06T08:25:45.222Z,21.27
2019-01-06T08:26:38.939Z,23.87
2019-01-06T08:27:45.141Z,22.77
2019-01-06T08:29:04.643Z,23.57
2019-01-06T08:30:20.406Z,24.27
2019-01-06T08:31:41.650Z,21.42
2019-01-06T08:32:42.517Z,20.82
2019-01-06T08:33:52.653Z,24.02
2019-01-06T08:34:55.891Z,21.35
2019-01-06T08:36:21.563Z,21.02
2019-01-06T08:37:24.106Z,19.32
2019-01-06T08:38:19.864Z,20.65
2019-01-06T08:39:16.455Z,22.70
2019-01-06T08:40:19.550Z,24.05
2019-01-06T08:41:13.141Z,23.70
2019-01-06T08:42:05.812Z,22.37
2019-01-06T08:43:01.505Z,26.10
2019-01-06T08:44:02.718Z,26.95
2019-01-06T08:45:08.624Z,24.35
2019-01-06T08:46:21.037Z,26.07
2019-01-06T08:47:23.846Z,22.48
2019-01-06T08:48:16.532Z,24.00
2019-01-06T08:49:11.036Z,25.30
2019-01-06T08:50:15.742Z,26.50
2019-01-06T08:51:31.983Z,23.02
2019-01-06T08:52:32.246Z,27.30
2019-01-06T08:53:27.691Z,25.10
2019-01-06T08:54:21.654Z,26.85
2019-01-06T08:55:16.682Z,22.42
2019-01-06T08:56:13.525Z,22.50
2019-01-06T08:57:16.609Z,23.15
2019-01-06T08:59:35.614Z,23.75
2019-01-06T09:00:28.769Z,24.77
2019-01-06T09:01:21.531Z,27.13
2019-01-06T09:02:14.698Z,25.97
2019-01-06T09:03:32.891Z,20.10
2019-01-06T09:04:42.589Z,24.67
2019-01-06T09:05:37.008Z,21.52
2019-01-06T09:06:29.591Z,22.45
2019-01-06T09:07:27.430Z,25.77
2019-01-06T09:08:20.816Z,26.97
2019-01-06T09:09:09.887Z,25.85
2019-01-06T09:10:04.167Z,24.65
2019-01-06T09:11:04.478Z,27.85
2019-01-06T09:12:07.749Z,29.02
2019-01-06T09:13:31.995Z,22.15
2019-01-06T09:14:45.732Z,24.47
2019-01-06T09:15:57.708Z,22.67
2019-01-06T09:17:00.704Z,22.00
2019-01-06T09:18:04.605Z,22.98
2019-01-06T09:19:05.164Z,22.13
2019-01-06T09:19:58.190Z,20.48
2019-01-06T09:20:55.451Z,25.20
2019-01-06T09:21:57.818Z,23.98
2019-01-06T09:22:56.699Z,25.62
2019-01-06T09:23:49.578Z,20.45
2019-01-06T09:24:42.805Z,20.23
2019-01-06T09:25:40.964Z,23.18
2019-01-06T09:26:30.874Z,21.80
2019-01-06T09:27:23.357Z,19.30
2019-01-06T09:28:19.759Z,20.52
2019-01-06T09:29:20.047Z,22.87
2019-01-06T09:30:12.741Z,23.00
2019-01-06T09:32:16.762Z,21.25
2019-01-06T09:33:17.056Z,22.55
2019-01-06T09:34:10.906Z,22.40
2019-01-06T09:35:16.856Z,21.07
2019-01-06T09:36:16.613Z,20.80
2019-01-06T09:37:11.039Z,23.35
2019-01-06T09:38:10.530Z,18.57
2019-01-06T09:39:18.537Z,19.77
2019-01-06T09:40:10.862Z,25.60
2019-01-06T09:41:17.742Z,19.67
2019-01-06T09:42:17.835Z,22.87
2019-01-06T09:43:07.343Z,20.70
2019-01-06T09:44:10.468Z,21.93
2019-01-06T09:45:25.630Z,20.77
2019-01-06T09:46:22.273Z,18.25
2019-01-06T09:47:30.850Z,20.40
2019-01-06T09:48:23.876Z,20.25
2019-01-06T09:49:26.540Z,22.07
2019-01-06T09:50:20.370Z,19.42
2019-01-06T09:51:14.692Z,19.10
2019-01-06T09:52:16.466Z,19.65
2019-01-06T09:53:13.249Z,19.87
2019-01-06T09:54:07.342Z,22.70
2019-01-06T09:55:01.042Z,17.30
2019-01-06T09:56:07.530Z,16.48
2019-01-06T09:57:00.001Z,19.10
2019-01-06T09:57:48.639Z,19.32
2019-01-06T09:58:35.537Z,15.10
2019-01-06T09:59:29.615Z,17.67
2019-01-06T10:00:32.564Z,19.27
2019-01-06T10:01:24.967Z,17.70
2019-01-06T10:02:09.867Z,21.85
2019-01-06T10:03:09.593Z,17.82
2019-01-06T10:04:02.235Z,19.90
2019-01-06T10:05:05.125Z,18.00
2019-01-06T10:06:16.243Z,16.62
2019-01-06T10:07:09.734Z,18.23
2019-01-06T10:08:07.081Z,19.00
2019-01-06T10:08:59.839Z,16.37
2019-01-06T10:09:45.878Z,19.98
2019-01-06T10:10:52.475Z,17.45
2019-01-06T10:11:44.851Z,18.75
2019-01-06T10:12:51.100Z,15.93
2019-01-06T10:13:57.001Z,18.10
2019-01-06T10:14:52.245Z,15.40
2019-01-06T10:15:58.219Z,15.55
2019-01-06T10:16:54.640Z,20.15
2019-01-06T10:17:46.794Z,17.50
2019-01-06T10:18:43.250Z,17.30
2019-01-06T10:19:29.542Z,17.40
2019-01-06T10:20:27.224Z,20.32
2019-01-06T10:21:36.820Z,16.10
2019-01-06T10:22:36.782Z,17.15
2019-01-06T10:23:31.121Z,16.50
2019-01-06T10:24:37.266Z,20.08
2019-01-06T10:25:30.990Z,19.52
2019-01-06T10:26:26.331Z,18.02
2019-01-06T10:27:26.646Z,17.30
2019-01-06T10:28:19.738Z,19.57
2019-01-06T10:29:12.210Z,16.62
2019-01-06T10:30:15.012Z,17.02
2019-01-06T10:31:07.424Z,16.27
2019-01-06T10:31:59.303Z,17.60
2019-01-06T10:32:52.325Z,16.57
2019-01-06T10:33:49.155Z,20.12
2019-01-06T10:34:52.362Z,16.17
2019-01-06T10:35:48.376Z,18.12
2019-01-06T10:38:39.484Z,18.00
2019-01-06T10:40:18.197Z,18.37
2019-01-06T10:41:35.695Z,16.97
2019-01-06T10:43:00.449Z,18.37
2019-01-06T10:44:22.596Z,17.45
2019-01-06T10:45:53.259Z,19.27
2019-01-06T10:47:16.101Z,17.07
2019-01-06T10:48:39.447Z,16.10
2019-01-06T10:50:24.375Z,14.03
2019-01-06T10:51:57.038Z,18.27
2019-01-06T10:53:32.750Z,18.92
2019-01-06T10:54:55.138Z,18.32
2019-01-06T10:56:37.836Z,15.75
2019-01-06T10:58:01.507Z,19.95
2019-01-06T10:59:40.118Z,18.35
2019-01-06T11:01:22.952Z,19.55
2019-01-06T11:02:45.875Z,19.37
2019-01-06T11:04:08.432Z,17.52
2019-01-06T11:05:34.511Z,17.40
2019-01-06T11:06:58.579Z,19.17
2019-01-06T11:08:29.043Z,17.48
2019-01-06T11:10:02.246Z,16.40
2019-01-06T11:11:38.317Z,20.45
2019-01-06T11:13:01.080Z,18.60
2019-01-06T11:14:30.550Z,17.57
2019-01-06T11:15:59.823Z,20.00
2019-01-06T11:17:39.299Z,16.52
2019-01-06T11:19:05.954Z,22.32
2019-01-06T11:20:32.552Z,19.45
2019-01-06T11:22:04.988Z,23.22
2019-01-06T11:23:42.661Z,18.12
2019-01-06T11:25:09.024Z,20.80
2019-01-06T11:26:38.871Z,20.85
2019-01-06T11:28:08.716Z,18.82
2019-01-06T11:29:32.130Z,18.95
2019-01-06T11:30:55.200Z,21.37
2019-01-06T11:32:24.891Z,24.02
2019-01-06T11:33:47.990Z,22.35
2019-01-06T11:35:21.137Z,19.32
2019-01-06T11:36:44.113Z,19.70
2019-01-06T11:38:06.363Z,17.98
2019-01-06T11:39:29.208Z,20.32
2019-01-06T11:41:12.105Z,24.02
2019-01-06T11:42:28.877Z,23.07
2019-01-06T11:43:44.268Z,19.57
2019-01-06T11:45:07.633Z,20.30
2019-01-06T11:46:30.398Z,20.40
2019-01-06T11:48:12.419Z,24.47
2019-01-06T11:49:39.326Z,21.40
2019-01-06T11:51:02.242Z,18.82
2019-01-06T11:52:26.076Z,16.40
2019-01-06T11:53:48.691Z,24.52
2019-01-06T11:55:22.372Z,19.10
2019-01-06T11:56:46.038Z,20.62
2019-01-06T11:58:09.402Z,19.37
2019-01-06T11:59:38.836Z,19.85
2019-01-06T12:01:04.750Z,17.90
2019-01-06T12:02:38.785Z,18.07
2019-01-06T12:03:55.515Z,17.07
2019-01-06T12:05:28.640Z,20.43
2019-01-06T12:06:51.066Z,19.75
2019-01-06T12:08:15.100Z,20.57
2019-01-06T12:09:37.364Z,16.65
2019-01-06T12:11:13.279Z,19.35
2019-01-06T12:12:43.269Z,16.23
2019-01-06T12:14:07.251Z,21.97
2019-01-06T12:15:36.837Z,15.98
2019-01-06T12:16:58.284Z,17.57
2019-01-06T12:18:22.327Z,20.30
2019-01-06T12:19:45.962Z,16.55
2019-01-06T12:21:03.970Z,18.30
2019-01-06T12:22:27.703Z,17.55
2019-01-06T12:23:49.471Z,14.23
2019-01-06T12:25:12.091Z,19.37
2019-01-06T12:26:38.835Z,16.55
2019-01-06T12:28:02.953Z,19.20
2019-01-06T12:29:25.206Z,17.80
2019-01-06T12:31:07.605Z,17.02
2019-01-06T12:32:47.045Z,17.57
2019-01-06T12:34:23.256Z,18.87
2019-01-06T12:35:46.562Z,17.77
2019-01-06T12:37:09.632Z,20.35
2019-01-06T12:38:40.459Z,14.95
2019-01-06T12:40:10.629Z,17.35
2019-01-06T12:41:31.656Z,20.10
2019-01-06T12:42:55.978Z,19.80
2019-01-06T12:44:18.957Z,21.85
2019-01-06T12:45:55.239Z,15.75
2019-01-06T12:47:19.258Z,21.23
2019-01-06T12:48:41.839Z,16.75
2019-01-06T12:50:09.252Z,20.25
2019-01-06T12:51:43.526Z,21.00
2019-01-06T12:53:05.013Z,18.07
2019-01-06T12:54:41.146Z,17.52
2019-01-06T12:56:12.705Z,19.92
2019-01-06T12:57:45.504Z,20.77
2019-01-06T12:59:08.474Z,21.07
2019-01-06T13:00:35.672Z,22.02
2019-01-06T13:01:57.921Z,19.02
2019-01-06T13:03:24.893Z,17.77
2019-01-06T13:05:04.550Z,21.70
2019-01-06T13:06:28.894Z,21.02
2019-01-06T13:07:55.410Z,20.88
2019-01-06T13:09:37.681Z,18.25
2019-01-06T13:11:07.433Z,16.97
2019-01-06T13:12:40.330Z,20.70
2019-01-06T13:14:03.228Z,20.10
2019-01-06T13:15:26.916Z,19.42
2019-01-06T13:16:50.649Z,16.62
2019-01-06T13:18:13.242Z,16.73
2019-01-06T13:19:43.723Z,18.98
2019-01-06T13:21:07.367Z,19.98
2019-01-06T13:22:31.872Z,21.15
2019-01-06T13:23:58.834Z,19.35
2019-01-06T13:25:37.836Z,21.33
2019-01-06T13:27:17.208Z,20.32
2019-01-06T13:28:39.669Z,19.52